createdAt,value
2023-01-12T00:01:25.082Z,23.77
2023-01-12T00:03:52.498Z,13.40
2023-01-12T00:06:20.296Z,13.57
2023-01-12T00:08:48.003Z,16.58
2023-01-12T00:11:15.413Z,21.30
2023-01-12T00:13:41.991Z,13.52
2023-01-12T00:16:34.646Z,17.93
2023-01-12T00:19:22.300Z,12.73
2023-01-12T00:22:11.832Z,14.02
2023-01-12T00:24:48.160Z,12.45
2023-01-12T00:27:20.168Z,10.85
2023-01-12T00:29:46.997Z,6.97
2023-01-12T00:32:19.752Z,11.90
2023-01-12T00:34:46.391Z,9.32
2023-01-12T00:37:13.080Z,7.65
2023-01-12T00:39:42.987Z,10.57
2023-01-12T00:42:31.744Z,9.43
2023-01-12T00:45:16.953Z,13.60
2023-01-12T00:47:43.756Z,6.05
2023-01-12T00:50:10.501Z,11.45
2023-01-12T00:52:37.054Z,12.10
2023-01-12T00:55:03.773Z,16.17
2023-01-12T00:57:30.264Z,12.82
2023-01-12T00:59:58.311Z,13.70
2023-01-12T01:02:26.101Z,20.00
2023-01-12T01:04:52.931Z,9.10
2023-01-12T01:07:21.724Z,9.90
2023-01-12T01:09:49.451Z,9.70
2023-01-12T01:12:16.281Z,6.55
2023-01-12T01:14:43.245Z,15.80
2023-01-12T01:17:09.823Z,10.48
2023-01-12T01:19:36.899Z,10.70
2023-01-12T01:22:03.457Z,10.20
2023-01-12T01:24:29.993Z,11.98
2023-01-12T01:26:56.627Z,9.05
2023-01-12T01:29:23.239Z,8.45
2023-01-12T01:31:49.798Z,13.13
2023-01-12T01:34:16.485Z,13.35
2023-01-12T01:36:42.993Z,9.20
2023-01-12T01:39:09.832Z,8.38
2023-01-12T01:41:36.356Z,13.95
2023-01-12T01:44:31.945Z,11.27
2023-01-12T01:46:59.944Z,10.50
2023-01-12T01:49:36.988Z,14.50
2023-01-12T01:52:08.475Z,10.40
2023-01-12T01:54:40.729Z,7.85
2023-01-12T01:57:09.448Z,6.57
2023-01-12T01:59:40.881Z,9.85
2023-01-12T02:02:07.529Z,12.77
2023-01-12T02:04:34.237Z,9.45
2023-01-12T02:07:02.169Z,5.90
2023-01-12T02:09:30.826Z,5.83
2023-01-12T02:12:16.623Z,4.95
2023-01-12T02:15:04.605Z,7.15
2023-01-12T02:17:43.514Z,6.38
2023-01-12T02:20:22.110Z,4.40
2023-01-12T02:23:33.646Z,4.90
2023-01-12T02:26:25.151Z,6.57
2023-01-12T02:29:03.864Z,2.42
2023-01-12T02:31:48.920Z,10.35
2023-01-12T02:34:37.338Z,4.32
2023-01-12T02:37:43.201Z,6.27
2023-01-12T02:40:22.984Z,5.05
2023-01-12T02:42:54.495Z,7.35
2023-01-12T02:45:27.185Z,3.40
2023-01-12T02:47:59.489Z,8.50
2023-01-12T02:50:40.088Z,7.23
2023-01-12T02:53:12.763Z,5.70
2023-01-12T02:55:41.314Z,4.32
2023-01-12T02:58:11.563Z,4.40
2023-01-12T03:00:42.008Z,9.48
2023-01-12T03:03:08.963Z,5.67
2023-01-12T03:05:40.157Z,4.32
2023-01-12T03:08:11.481Z,7.63
2023-01-12T03:10:50.984Z,5.38
2023-01-12T03:13:19.635Z,8.35
2023-01-12T03:15:50.478Z,11.63
2023-01-12T03:18:38.923Z,8.25
2023-01-12T03:21:11.828Z,4.32
2023-01-12T03:23:47.617Z,7.38
2023-01-12T03:26:18.618Z,10.30
2023-01-12T03:28:50.230Z,6.47
2023-01-12T03:31:16.732Z,4.38
2023-01-12T03:33:44.796Z,6.20
2023-01-12T03:36:39.475Z,4.32
2023-01-12T03:39:33.607Z,6.28
2023-01-12T03:42:11.806Z,9.97
2023-01-12T03:45:10.693Z,5.68
2023-01-12T03:47:40.528Z,6.55
2023-01-12T03:50:17.593Z,6.43
2023-01-12T03:52:46.005Z,5.20
2023-01-12T03:55:17.505Z,5.17
2023-01-12T03:57:45.282Z,3.33
2023-01-12T04:00:15.018Z,6.05
2023-01-12T04:02:45.156Z,11.38
2023-01-12T04:05:14.285Z,5.35
2023-01-12T04:07:40.976Z,6.40
2023-01-12T04:10:07.909Z,5.72
2023-01-12T04:12:34.530Z,7.85
2023-01-12T04:15:01.006Z,3.80
2023-01-12T04:17:29.154Z,3.80
2023-01-12T04:19:55.693Z,2.67
2023-01-12T04:22:40.800Z,2.35
2023-01-12T04:25:09.600Z,4.53
2023-01-12T04:27:36.508Z,2.20
2023-01-12T04:30:03.825Z,5.18
2023-01-12T04:32:30.399Z,3.50
2023-01-12T04:34:57.040Z,3.58
2023-01-12T04:37:23.695Z,2.55
2023-01-12T04:39:50.194Z,2.63
2023-01-12T04:42:35.262Z,3.05
2023-01-12T04:45:01.764Z,4.57
2023-01-12T04:47:28.435Z,3.03
2023-01-12T04:49:54.924Z,4.28
2023-01-12T04:52:21.489Z,3.72
2023-01-12T04:54:47.954Z,2.00
2023-01-12T04:57:14.432Z,1.93
2023-01-12T04:59:41.010Z,3.00
2023-01-12T05:02:07.606Z,3.60
2023-01-12T05:04:34.311Z,4.85
2023-01-12T05:07:00.869Z,4.38
2023-01-12T05:09:45.733Z,3.53
2023-01-12T05:12:12.282Z,4.93
2023-01-12T05:14:38.744Z,6.03
2023-01-12T05:17:05.473Z,3.60
2023-01-12T05:19:31.931Z,1.98
2023-01-12T05:21:58.904Z,2.87
2023-01-12T05:24:25.389Z,2.38
2023-01-12T05:26:51.947Z,4.20
2023-01-12T05:29:18.443Z,3.00
2023-01-12T05:31:44.986Z,2.53
2023-01-12T05:34:11.468Z,5.07
2023-01-12T05:36:37.969Z,3.35
2023-01-12T05:39:05.088Z,7.43
2023-01-12T05:41:31.602Z,7.40
2023-01-12T05:43:58.164Z,1.83
2023-01-12T05:46:27.367Z,6.03
2023-01-12T05:48:55.746Z,4.63
2023-01-12T05:51:25.015Z,7.18
2023-01-12T05:53:51.767Z,6.47
2023-01-12T05:56:25.998Z,3.05
2023-01-12T05:59:00.998Z,4.93
2023-01-12T06:01:29.130Z,4.32
2023-01-12T06:03:57.946Z,2.70
2023-01-12T06:06:26.437Z,3.90
2023-01-12T06:08:54.070Z,4.15
2023-01-12T06:11:39.819Z,4.40
2023-01-12T06:14:07.285Z,5.32
2023-01-12T06:16:37.411Z,5.80
2023-01-12T06:19:04.260Z,4.28
2023-01-12T06:21:32.659Z,2.97
2023-01-12T06:23:59.454Z,4.23
2023-01-12T06:26:26.299Z,7.00
2023-01-12T06:28:53.062Z,2.30
2023-01-12T06:31:19.788Z,3.85
2023-01-12T06:33:46.465Z,6.30
2023-01-12T06:36:13.154Z,4.27
2023-01-12T06:38:40.344Z,4.28
2023-01-12T06:41:30.227Z,3.65
2023-01-12T06:43:57.367Z,5.13
2023-01-12T06:46:25.182Z,4.38
2023-01-12T06:48:51.863Z,3.27
2023-01-12T06:51:18.429Z,4.25
2023-01-12T06:53:44.959Z,2.80
2023-01-12T06:56:11.470Z,1.05
2023-01-12T06:58:38.247Z,4.80
2023-01-12T07:01:05.031Z,5.07
2023-01-12T07:03:31.573Z,4.00
2023-01-12T07:05:59.386Z,1.83
2023-01-12T07:08:26.687Z,5.38
2023-01-12T07:10:53.807Z,5.10
2023-01-12T07:13:20.823Z,2.30
2023-01-12T07:15:47.571Z,3.58
2023-01-12T07:18:15.215Z,4.38
2023-01-12T07:20:41.854Z,3.70
2023-01-12T07:23:08.480Z,2.00
2023-01-12T07:25:35.107Z,2.60
2023-01-12T07:28:02.152Z,5.95
2023-01-12T07:30:28.922Z,3.13
2023-01-12T07:32:55.481Z,7.50
2023-01-12T07:35:22.222Z,4.95
2023-01-12T07:37:50.153Z,6.37
2023-01-12T07:40:17.890Z,6.18
2023-01-12T07:42:44.658Z,11.13
2023-01-12T07:45:11.957Z,7.53
2023-01-12T07:47:38.729Z,5.00
2023-01-12T07:50:05.999Z,4.30
2023-01-12T07:52:32.754Z,4.35
2023-01-12T07:54:59.549Z,5.43
2023-01-12T07:57:26.054Z,7.40
2023-01-12T07:59:52.616Z,9.75
2023-01-12T08:02:20.873Z,5.20
2023-01-12T08:04:47.704Z,5.57
2023-01-12T08:07:15.131Z,4.63
2023-01-12T08:09:41.829Z,7.43
2023-01-12T08:12:08.365Z,7.85
2023-01-12T08:14:37.501Z,6.37
2023-01-12T08:17:10.580Z,5.85
2023-01-12T08:19:43.062Z,5.43
2023-01-12T08:22:16.134Z,3.58
2023-01-12T08:24:51.398Z,8.23
2023-01-12T08:27:23.917Z,5.13
2023-01-12T08:29:54.740Z,8.18
2023-01-12T08:32:22.326Z,4.85
2023-01-12T08:34:52.308Z,6.57
2023-01-12T08:37:22.860Z,3.00
2023-01-12T08:39:50.651Z,5.73
2023-01-12T08:42:17.926Z,7.35
2023-01-12T08:44:44.919Z,4.60
2023-01-12T08:47:17.946Z,6.05
2023-01-12T08:49:46.140Z,7.25
2023-01-12T08:52:14.259Z,8.80
2023-01-12T08:54:40.919Z,6.55
2023-01-12T08:57:07.483Z,6.68
2023-01-12T08:59:34.358Z,7.93
2023-01-12T09:02:01.175Z,6.45
2023-01-12T09:04:28.081Z,4.67
2023-01-12T09:06:55.009Z,12.25
2023-01-12T09:09:22.550Z,6.60
2023-01-12T09:11:50.680Z,7.70
2023-01-12T09:14:18.418Z,9.73
2023-01-12T09:16:45.123Z,7.63
2023-01-12T09:19:11.938Z,6.57
2023-01-12T09:21:40.806Z,6.20
2023-01-12T09:24:08.549Z,6.22
2023-01-12T09:26:53.319Z,8.80
2023-01-12T09:29:23.099Z,6.67
2023-01-12T09:31:50.034Z,13.15
2023-01-12T09:34:16.659Z,8.15
2023-01-12T09:36:44.590Z,3.42
2023-01-12T09:39:26.879Z,5.78
2023-01-12T09:42:13.176Z,8.07
2023-01-12T09:45:06.326Z,6.75
2023-01-12T09:47:39.773Z,5.47
2023-01-12T09:50:11.229Z,6.18
2023-01-12T09:52:49.537Z,3.17
2023-01-12T09:55:29.524Z,5.43
2023-01-12T09:57:59.011Z,3.95
2023-01-12T10:00:28.261Z,4.78
2023-01-12T10:03:22.180Z,3.40
2023-01-12T10:05:54.764Z,7.45
2023-01-12T10:08:33.904Z,3.07
2023-01-12T10:11:22.823Z,5.43
2023-01-12T10:13:58.507Z,7.05
2023-01-12T10:16:31.079Z,3.53
2023-01-12T10:19:02.752Z,2.03
2023-01-12T10:21:31.885Z,6.70
2023-01-12T10:23:58.859Z,6.97
2023-01-12T10:26:38.476Z,3.72
2023-01-12T10:29:10.415Z,4.53
2023-01-12T10:31:37.021Z,4.47
2023-01-12T10:34:06.892Z,5.60
2023-01-12T10:36:35.802Z,3.78
2023-01-12T10:39:04.933Z,3.92
2023-01-12T10:41:33.642Z,7.35
2023-01-12T10:44:00.079Z,5.13
2023-01-12T10:46:31.972Z,4.43
2023-01-12T10:49:23.703Z,5.57
2023-01-12T10:52:02.802Z,7.70
2023-01-12T10:54:34.828Z,3.72
2023-01-12T10:57:13.913Z,6.43
2023-01-12T10:59:41.744Z,4.67
2023-01-12T11:02:11.883Z,3.35
2023-01-12T11:04:47.536Z,4.15
2023-01-12T11:07:26.524Z,4.20
2023-01-12T11:09:54.807Z,4.32
2023-01-12T11:12:28.142Z,5.43
2023-01-12T11:15:16.903Z,7.35
2023-01-12T11:17:51.345Z,7.90
2023-01-12T11:20:20.878Z,5.18
2023-01-12T11:22:51.995Z,8.07
2023-01-12T11:25:24.494Z,7.60
2023-01-12T11:28:16.059Z,8.02
2023-01-12T11:30:55.207Z,6.32
2023-01-12T11:33:25.405Z,5.95
2023-01-12T11:35:58.903Z,5.35
2023-01-12T11:38:47.509Z,6.27
2023-01-12T11:41:19.100Z,7.45
2023-01-12T11:43:56.369Z,4.30
2023-01-12T11:46:23.067Z,4.15
2023-01-12T11:49:04.685Z,3.00
2023-01-12T11:51:34.316Z,3.03
2023-01-12T11:54:10.419Z,5.55
2023-01-12T11:56:49.181Z,3.88
2023-01-12T11:59:34.887Z,4.32
2023-01-12T12:02:10.606Z,4.35
2023-01-12T12:05:05.957Z,5.47
2023-01-12T12:07:48.291Z,5.05
2023-01-12T12:10:31.538Z,2.65
2023-01-12T12:13:04.149Z,7.18
2023-01-12T12:15:36.862Z,3.65
2023-01-12T12:18:38.494Z,6.63
2023-01-12T12:21:29.875Z,7.47
2023-01-12T12:24:21.365Z,2.65
2023-01-12T12:27:11.962Z,6.72
2023-01-12T12:30:09.941Z,3.63
2023-01-12T12:33:07.331Z,3.90
2023-01-12T12:35:52.732Z,3.75
2023-01-12T12:38:46.082Z,6.00
2023-01-12T12:41:41.351Z,5.40
2023-01-12T12:44:38.916Z,6.13
2023-01-12T12:47:28.631Z,6.80
2023-01-12T12:49:57.591Z,7.72
2023-01-12T12:52:27.570Z,5.65
2023-01-12T12:54:57.503Z,8.68
2023-01-12T12:57:24.780Z,6.05
2023-01-12T12:59:54.405Z,3.33
2023-01-12T13:02:53.128Z,3.47
2023-01-12T13:05:45.831Z,2.95
2023-01-12T13:08:21.808Z,3.28
2023-01-12T13:10:57.582Z,3.88
2023-01-12T13:13:36.516Z,3.57
2023-01-12T13:16:15.437Z,5.72
2023-01-12T13:19:02.146Z,3.80
2023-01-12T13:21:45.037Z,3.33
2023-01-12T13:24:11.909Z,2.63
2023-01-12T13:26:42.206Z,4.87
2023-01-12T13:29:24.359Z,3.38
2023-01-12T13:31:52.660Z,7.82
2023-01-12T13:34:50.033Z,1.33
2023-01-12T13:38:04.344Z,3.42
2023-01-12T13:40:32.624Z,3.63
2023-01-12T13:43:15.131Z,7.07
2023-01-12T13:45:56.524Z,5.82
2023-01-12T13:48:24.872Z,6.03
2023-01-12T13:50:59.625Z,6.60
2023-01-12T13:53:29.003Z,8.40
2023-01-12T13:55:58.758Z,5.13
2023-01-12T13:58:26.621Z,4.90
2023-01-12T14:00:56.365Z,3.45
2023-01-12T14:03:41.632Z,6.15
2023-01-12T14:06:15.242Z,4.97
2023-01-12T14:08:52.389Z,4.45
2023-01-12T14:11:44.162Z,7.80
2023-01-12T14:15:07.219Z,4.07
2023-01-12T14:17:49.954Z,7.30
2023-01-12T14:20:25.362Z,2.50
2023-01-12T14:23:21.259Z,6.15
2023-01-12T14:26:03.370Z,8.15
2023-01-12T14:28:30.358Z,7.93
2023-01-12T14:30:57.911Z,10.05
2023-01-12T14:33:27.591Z,3.23
2023-01-12T14:35:57.454Z,5.78
2023-01-12T14:38:28.007Z,3.75
2023-01-12T14:40:57.454Z,6.32
2023-01-12T14:43:42.715Z,4.32
2023-01-12T14:46:26.337Z,8.37
2023-01-12T14:49:04.767Z,5.97
2023-01-12T14:51:37.759Z,8.60
2023-01-12T14:54:07.386Z,9.40
2023-01-12T14:56:56.772Z,6.10
2023-01-12T14:59:29.148Z,10.00
2023-01-12T15:02:21.119Z,2.63
2023-01-12T15:04:52.359Z,4.40
2023-01-12T15:07:21.735Z,2.90
2023-01-12T15:09:53.541Z,3.95
2023-01-12T15:12:45.921Z,7.30
2023-01-12T15:15:17.129Z,8.35
2023-01-12T15:18:06.101Z,7.60
2023-01-12T15:20:57.526Z,6.15
2023-01-12T15:23:58.974Z,6.55
2023-01-12T15:26:25.506Z,6.07
2023-01-12T15:28:52.072Z,5.35
2023-01-12T15:31:49.901Z,8.05
2023-01-12T15:34:16.474Z,9.07
2023-01-12T15:36:43.233Z,3.47
2023-01-12T15:46:59.841Z,6.65
2023-01-12T15:49:26.824Z,9.98
2023-01-12T15:51:53.785Z,10.35
2023-01-12T15:54:22.031Z,5.97
2023-01-12T15:56:49.107Z,8.38
2023-01-12T16:02:56.531Z,6.38
2023-01-12T16:05:23.982Z,8.90
2023-01-12T16:07:50.644Z,8.50
2023-01-12T16:10:18.655Z,4.30
2023-01-12T16:12:48.136Z,6.55
2023-01-12T16:15:26.339Z,7.53
2023-01-12T16:20:42.882Z,7.57
2023-01-12T16:23:09.437Z,5.35
2023-01-12T16:25:38.413Z,6.35
2023-01-12T16:28:05.223Z,8.82
2023-01-12T16:30:32.968Z,7.30
2023-01-12T16:32:59.672Z,6.33
2023-01-12T16:35:26.846Z,9.85
2023-01-12T16:37:56.803Z,5.60
2023-01-12T16:40:23.391Z,5.75
2023-01-12T16:42:49.961Z,8.02
2023-01-12T16:45:16.571Z,8.63
2023-01-12T16:47:43.124Z,10.18
2023-01-12T16:50:10.075Z,10.38
2023-01-12T16:52:36.691Z,8.02
2023-01-12T16:55:05.003Z,10.63
2023-01-12T16:57:33.581Z,10.83
2023-01-12T17:00:00.300Z,11.27
2023-01-12T17:02:27.569Z,11.25
2023-01-12T17:04:54.640Z,6.60
2023-01-12T17:07:21.326Z,10.95
2023-01-12T17:09:48.195Z,13.43
2023-01-12T17:12:15.144Z,10.80
2023-01-12T17:14:41.833Z,10.73
2023-01-12T17:17:10.257Z,9.13
2023-01-12T17:19:39.531Z,12.02
2023-01-12T17:22:07.778Z,13.30
2023-01-12T17:24:36.426Z,10.40
2023-01-12T17:27:03.417Z,17.75
2023-01-12T17:29:30.078Z,11.18
2023-01-12T17:32:05.108Z,17.02
2023-01-12T17:34:36.728Z,18.07
2023-01-12T17:37:04.424Z,22.60
2023-01-12T17:39:31.168Z,18.77
2023-01-12T17:42:16.357Z,18.80
2023-01-12T17:44:42.930Z,21.45
2023-01-12T17:47:10.109Z,25.70
2023-01-12T17:49:37.064Z,17.83
2023-01-12T17:52:04.152Z,15.40
2023-01-12T17:54:30.973Z,19.08
2023-01-12T17:56:57.859Z,21.52
2023-01-12T17:59:24.968Z,20.03
2023-01-12T18:01:51.838Z,17.80
2023-01-12T18:04:18.552Z,23.10
2023-01-12T18:06:46.187Z,21.05
2023-01-12T18:09:13.738Z,27.70
2023-01-12T18:11:40.603Z,20.23
2023-01-12T18:14:07.489Z,23.30
2023-01-12T18:16:34.532Z,27.08
2023-01-12T18:19:07.346Z,23.45
2023-01-12T18:21:34.838Z,20.00
2023-01-12T18:24:02.152Z,15.67
2023-01-12T18:26:35.883Z,19.88
2023-01-12T18:29:05.459Z,17.63
2023-01-12T18:31:33.650Z,25.85
2023-01-12T18:34:05.022Z,22.17
2023-01-12T18:36:39.510Z,21.90
2023-01-12T18:39:09.174Z,19.55
2023-01-12T18:41:54.711Z,24.63
2023-01-12T18:44:22.108Z,23.80
2023-01-12T18:47:07.657Z,21.30
2023-01-12T18:49:35.600Z,19.90
2023-01-12T18:52:21.309Z,24.10
2023-01-12T18:54:48.317Z,16.00
2023-01-12T18:57:19.323Z,18.45
2023-01-12T18:59:46.868Z,20.65
2023-01-12T19:02:14.800Z,31.73
2023-01-12T19:04:47.325Z,15.77
2023-01-12T19:07:16.502Z,22.50
2023-01-12T19:09:43.566Z,26.75
2023-01-12T19:12:10.150Z,18.05
2023-01-12T19:14:55.325Z,20.53
2023-01-12T19:17:27.738Z,18.98
2023-01-12T19:19:57.807Z,25.48
2023-01-12T19:22:43.936Z,17.48
2023-01-12T19:25:40.728Z,26.92
2023-01-12T19:28:30.335Z,20.67
2023-01-12T19:31:01.075Z,25.52
2023-01-12T19:33:27.903Z,11.23
2023-01-12T19:35:54.845Z,27.88
2023-01-12T19:38:21.622Z,28.60
2023-01-12T19:40:54.759Z,29.97
2023-01-12T19:43:26.240Z,20.73
2023-01-12T19:46:00.149Z,18.48
2023-01-12T19:48:27.951Z,17.70
2023-01-12T19:50:55.099Z,26.33
2023-01-12T19:53:26.091Z,28.47
2023-01-12T19:55:53.029Z,30.65
2023-01-12T19:58:22.074Z,38.20
2023-01-12T20:00:51.248Z,20.65
2023-01-12T20:03:21.349Z,29.63
2023-01-12T20:05:52.287Z,17.50
2023-01-12T20:08:21.117Z,28.02
2023-01-12T20:10:56.859Z,30.40
2023-01-12T20:13:24.175Z,21.67
2023-01-12T20:15:50.804Z,23.10
2023-01-12T20:18:18.771Z,22.83
2023-01-12T20:20:45.700Z,20.33
2023-01-12T20:23:14.869Z,23.13
2023-01-12T20:25:42.868Z,20.48
2023-01-12T20:28:12.153Z,24.30
2023-01-12T20:30:41.177Z,17.60
2023-01-12T20:33:08.676Z,15.43
2023-01-12T20:35:38.378Z,26.85
2023-01-12T20:38:07.028Z,21.70
2023-01-12T20:40:33.997Z,10.57
2023-01-12T20:43:00.825Z,19.57
2023-01-12T20:45:27.452Z,20.35
2023-01-12T20:47:55.613Z,19.58
2023-01-12T20:50:23.264Z,18.08
2023-01-12T20:52:50.958Z,20.30
2023-01-12T20:55:17.521Z,17.33
2023-01-12T20:57:44.506Z,19.40
2023-01-12T21:00:12.743Z,19.67
2023-01-12T21:02:40.577Z,20.50
2023-01-12T21:05:09.066Z,18.80
2023-01-12T21:07:36.002Z,14.47
2023-01-12T21:10:02.577Z,21.88
2023-01-12T21:12:29.138Z,16.13
2023-01-12T21:14:55.788Z,21.05
2023-01-12T21:17:22.345Z,23.48
2023-01-12T21:19:49.108Z,26.43
2023-01-12T21:22:16.080Z,22.02
2023-01-12T21:24:44.879Z,24.83
2023-01-12T21:27:11.547Z,11.98
2023-01-12T21:29:38.175Z,22.98
2023-01-12T21:32:05.069Z,22.20
2023-01-12T21:34:31.636Z,25.48
2023-01-12T21:36:58.310Z,20.17
2023-01-12T21:39:25.017Z,25.45
2023-01-12T21:42:10.306Z,20.98
2023-01-12T21:44:39.713Z,15.93
2023-01-12T21:47:06.506Z,23.08
2023-01-12T21:49:34.139Z,30.17
2023-01-12T21:52:00.707Z,22.58
2023-01-12T21:54:27.537Z,19.20
2023-01-12T21:56:54.227Z,18.17
2023-01-12T21:59:20.900Z,28.80
2023-01-12T22:01:47.673Z,18.67
2023-01-12T22:04:14.480Z,24.88
2023-01-12T22:06:41.286Z,20.30
2023-01-12T22:09:08.061Z,14.57
2023-01-12T22:11:34.700Z,20.50
2023-01-12T22:14:01.437Z,16.77
2023-01-12T22:16:30.777Z,28.38
2023-01-12T22:18:57.506Z,19.90
2023-01-12T22:21:24.182Z,8.70
2023-01-12T22:23:50.860Z,20.83
2023-01-12T22:26:18.700Z,16.17
2023-01-12T22:28:50.021Z,15.30
2023-01-12T22:31:17.903Z,20.88
2023-01-12T22:33:46.498Z,16.27
2023-01-12T22:36:14.948Z,9.52
2023-01-12T22:38:42.260Z,11.70
2023-01-12T22:41:11.963Z,17.33
2023-01-12T22:43:41.797Z,13.70
2023-01-12T22:46:13.790Z,11.17
2023-01-12T22:48:40.776Z,16.00
2023-01-12T22:51:08.203Z,17.90
2023-01-12T22:53:35.825Z,15.25
2023-01-12T22:56:04.226Z,15.20
2023-01-12T22:58:32.368Z,16.23
2023-01-12T23:01:07.348Z,15.48
2023-01-12T23:03:35.434Z,15.68
2023-01-12T23:06:02.654Z,20.50
2023-01-12T23:08:29.548Z,13.60
2023-01-12T23:11:15.160Z,7.00
2023-01-12T23:13:42.890Z,13.52
2023-01-12T23:16:11.479Z,16.23
2023-01-12T23:18:40.143Z,14.85
2023-01-12T23:21:14.239Z,10.63
2023-01-12T23:23:48.991Z,13.53
2023-01-12T23:26:19.901Z,9.43
2023-01-12T23:28:49.082Z,19.85
2023-01-12T23:31:28.005Z,8.18
2023-01-12T23:33:54.772Z,5.72
2023-01-12T23:36:24.488Z,14.53
2023-01-12T23:38:55.705Z,11.95
2023-01-12T23:41:24.807Z,11.18
2023-01-12T23:43:52.896Z,13.98
2023-01-12T23:46:24.034Z,14.32
2023-01-12T23:48:51.958Z,13.70
2023-01-12T23:51:18.847Z,11.93
2023-01-12T23:53:45.670Z,14.35
2023-01-12T23:56:15.045Z,19.00
2023-01-12T23:58:42.796Z,11.75
